Airfield :
LOGIN :

Register | Disclaimer

   EN    FR    IT 

 










Legend :    VFR   Marginal VFR   IFR   Intensive IFR   Very Intensive IFR
Visi :
Ceiling :
>= 8 km
>= 3000ft
5 to 8 km
1000 to 3000 ft
1500m to 5 km
500 to 1000 ft
800 to 1500m
200 to 500 ft
< 800m
< 200 ft
Symbols :   Thunderstorms  Fog  Heavy snow  Heavy precipitations  Wind > 20 kt
SIGMETs :     Misc.  Thunderstorms  Icing  Turbulence  Mountain Waves  Volcanic Ashes






- Airport Elevation : 121 ft
- IATA code : HUY


EGNJ - Humberside

CURRENT METAR :
  • 271720Z 28013KT 9999 FEW036 06/00 Q1005

EXPIRED METARs :
  • 271650Z 29015KT 9999 FEW032 07/M02 Q1004
  • 271620Z 29019G29KT 9999 FEW037 07/M02 Q1004
  • 271550Z 30018KT 9999 SCT036 07/M02 Q1003
  • 271520Z 30018KT 9999 SCT039 07/M02 Q1002
  • 271450Z 29019KT 9999 SCT038 07/M01 Q1002

TAF TAF EGNJ
Valid from the 27 at 15:00 until the 28 at 00:00 UTC


271356Z 2715/2724 30012KT 9999 FEW014 SCT030
PROB30
TEMPO 2715/2721 28015G25KT
ATIS : +44 1652 682 020



MET'MAP, your aeronautical weather chart ! - Copyright ORBIFLY December 2007 - Disclaimer

ORBIFLY MET'MAP TEAM :

Programming & Development : Alexandra Zaïnal
Concept & original design : Baudouin d'Aumeries
Assistance for programming : Marc-Olivier Méhu
Technical & hardware support : Manuel Goepfert

Contact : metmap@orbifly.com




SOURCES & CREDITS :

   NOAA